Time;durP1;ratioP1;P1;durP2;ratioP2;P2;SDS_P1;SDS_P2;PMS_P1;PMS_P2;Temp;Humidity;BMP_temperature;BMP_pressure;BME280_temperature;BME280_humidity;BME280_pressure;Samples;Min_cycle;Max_cycle;Signal;HPM_P1;HPM_P2
2023/05/06 00:02:03;;;;;;;29.02;15.43;;;;;;;10.52;82.88;99586.53;5010367;28;20376;-88
2023/05/06 00:04:28;;;;;;;30.23;15.05;;;;;;;10.43;83.03;99588.13;5017322;28;20032;-89
2023/05/06 00:06:55;;;;;;;27.27;14.50;;;;;;;10.47;83.00;99590.03;5016929;28;20548;-90
2023/05/06 00:09:22;;;;;;;27.67;15.30;;;;;;;10.36;83.71;99584.88;5034198;28;20026;-90
2023/05/06 00:11:48;;;;;;;24.90;13.98;;;;;;;10.41;84.02;99591.06;5033888;28;20032;-91
2023/05/06 00:14:14;;;;;;;29.50;13.85;;;;;;;10.43;84.01;99599.69;5017689;28;20101;-91
2023/05/06 00:16:39;;;;;;;26.90;13.40;;;;;;;10.45;83.70;99588.69;5017556;28;20407;-92
2023/05/06 00:19:05;;;;;;;25.73;13.30;;;;;;;10.43;83.11;99582.75;5018289;28;20029;-91
2023/05/06 00:21:30;;;;;;;33.60;14.88;;;;;;;10.26;83.38;99577.53;5017142;28;20028;-90
2023/05/06 00:23:56;;;;;;;29.50;14.68;;;;;;;10.22;83.87;99587.19;5034081;28;20076;-89
2023/05/06 00:26:21;;;;;;;29.67;14.75;;;;;;;10.16;83.95;99580.97;5017790;28;20022;-90
2023/05/06 00:28:47;;;;;;;25.30;13.50;;;;;;;10.36;83.50;99601.03;5033778;28;20024;-90
2023/05/06 00:31:12;;;;;;;27.27;13.95;;;;;;;10.28;83.56;99580.75;5016952;28;20075;-90
2023/05/06 00:33:38;;;;;;;28.58;12.60;;;;;;;10.23;83.04;99580.72;5034135;28;20022;-90
2023/05/06 00:36:03;;;;;;;22.00;11.88;;;;;;;10.38;83.01;99585.44;5016999;28;20171;-91
2023/05/06 00:38:29;;;;;;;22.10;10.55;;;;;;;10.50;82.05;99594.91;5000922;28;20113;-90
2023/05/06 00:40:54;;;;;;;18.52;10.20;;;;;;;10.40;81.73;99580.59;5016505;28;20025;-90
2023/05/06 00:43:20;;;;;;;11.80;8.65;;;;;;;10.48;81.65;99593.56;5033498;28;20025;-89
2023/05/06 00:45:46;;;;;;;11.60;7.78;;;;;;;10.46;81.23;99593.00;5000482;28;20483;-89
2023/05/06 00:48:13;;;;;;;10.27;7.95;;;;;;;10.51;81.02;99582.25;5000423;28;20502;-89
2023/05/06 00:50:38;;;;;;;19.27;11.05;;;;;;;10.45;81.31;99596.75;5016298;28;20102;-88
2023/05/06 00:53:03;;;;;;;18.10;11.15;;;;;;;10.37;81.07;99587.28;5016907;28;20026;-90
2023/05/06 00:55:29;;;;;;;16.52;8.77;;;;;;;10.36;81.26;99596.44;5016626;28;20021;-90
2023/05/06 00:57:54;;;;;;;20.85;11.32;;;;;;;10.30;81.84;99592.91;4999678;28;20121;-90
2023/05/06 01:00:20;;;;;;;25.42;11.98;;;;;;;10.18;81.99;99588.78;5016609;28;20399;-89
2023/05/06 01:02:46;;;;;;;23.02;11.82;;;;;;;10.10;82.06;99582.81;5017162;28;20022;-90
2023/05/06 01:05:13;;;;;;;20.70;10.88;;;;;;;10.06;81.93;99579.00;4999965;28;20028;-90
2023/05/06 01:07:47;;;;;;;21.13;10.85;;;;;;;10.12;82.01;99588.72;5017040;28;20506;-90
2023/05/06 01:11:08;;;;;;;24.13;12.57;;;;;;;10.18;82.01;99597.66;5017241;28;20032;-90
2023/05/06 01:13:46;;;;;;;23.40;12.18;;;;;;;9.98;82.60;99584.91;4995303;28;20033;-90
2023/05/06 01:16:14;;;;;;;23.95;12.50;;;;;;;9.99;82.57;99589.19;5032800;28;20018;-90
2023/05/06 01:18:39;;;;;;;19.75;12.00;;;;;;;10.01;82.77;99581.69;5017479;28;20395;-91
2023/05/06 01:21:05;;;;;;;22.80;12.40;;;;;;;9.86;83.10;99582.41;5032620;28;20045;-89
2023/05/06 01:23:51;;;;;;;27.48;14.32;;;;;;;9.76;83.42;99570.75;5034456;28;20040;-89
2023/05/06 01:26:16;;;;;;;22.58;13.30;;;;;;;9.64;84.08;99565.56;5032827;28;20105;-90
2023/05/06 01:28:42;;;;;;;24.05;13.88;;;;;;;9.73;84.46;99580.13;4999803;28;20037;-90
2023/05/06 01:31:09;;;;;;;30.67;14.52;;;;;;;9.58;84.71;99562.00;5016671;28;20033;-90
2023/05/06 01:33:39;;;;;;;25.48;15.35;;;;;;;9.63;84.89;99575.50;5034222;28;20494;-89
2023/05/06 01:36:14;;;;;;;26.77;14.10;;;;;;;9.67;84.58;99575.78;5000169;28;20045;-89
2023/05/06 01:39:03;;;;;;;25.05;13.77;;;;;;;9.48;84.05;99538.56;5032590;28;20029;-90
2023/05/06 01:41:30;;;;;;;28.70;14.25;;;;;;;9.46;84.32;99548.75;5016971;28;20030;-90
2023/05/06 01:43:55;;;;;;;32.85;15.15;;;;;;;9.48;84.81;99554.69;5016084;28;20506;-90
2023/05/06 01:46:21;;;;;;;33.33;14.85;;;;;;;9.57;85.15;99565.78;5000621;28;20025;-90
2023/05/06 01:48:48;;;;;;;34.20;15.38;;;;;;;9.58;85.09;99570.06;4999778;28;20029;-89
2023/05/06 01:51:14;;;;;;;30.27;15.75;;;;;;;9.59;84.66;99566.34;5016399;28;20124;-89
2023/05/06 01:53:40;;;;;;;25.15;14.00;;;;;;;9.45;84.81;99549.81;4999233;28;20455;-90
2023/05/06 01:56:05;;;;;;;29.92;15.30;;;;;;;9.58;84.17;99553.13;5000045;28;20183;-90
2023/05/06 01:58:31;;;;;;;26.98;14.93;;;;;;;9.68;83.70;99555.91;5016942;28;20067;-89
2023/05/06 02:00:56;;;;;;;45.35;18.33;;;;;;;9.60;83.47;99551.81;5000187;28;20025;-91
2023/05/06 02:03:22;;;;;;;37.58;15.48;;;;;;;9.66;82.96;99550.78;4999353;28;20029;-90
2023/05/06 02:05:47;;;;;;;35.72;15.27;;;;;;;9.70;82.26;99543.81;5032561;28;20026;-90
2023/05/06 02:08:13;;;;;;;32.65;14.40;;;;;;;9.79;82.21;99556.78;4996586;28;20033;-90
2023/05/06 02:10:38;;;;;;;32.20;14.10;;;;;;;9.80;82.11;99559.22;4996576;28;20034;-88
2023/05/06 02:13:05;;;;;;;32.20;15.20;;;;;;;9.67;82.20;99540.81;4994865;28;20022;-90
2023/05/06 02:15:30;;;;;;;28.73;13.90;;;;;;;9.74;82.44;99556.75;5012476;28;20052;-91
2023/05/06 02:17:56;;;;;;;29.52;13.82;;;;;;;9.75;82.29;99545.72;5012941;28;20026;-90
2023/05/06 02:20:22;;;;;;;30.85;13.85;;;;;;;9.78;82.02;99557.88;5029173;28;20034;-90
2023/05/06 02:22:47;;;;;;;29.73;12.80;;;;;;;9.75;81.93;99542.22;5012328;28;20092;-89
2023/05/06 02:25:12;;;;;;;30.35;14.60;;;;;;;9.62;82.26;99546.97;5028928;28;20030;-89
2023/05/06 02:27:38;;;;;;;33.60;15.52;;;;;;;9.57;82.53;99552.34;4996072;28;20476;-89
2023/05/06 02:30:05;;;;;;;32.78;16.23;;;;;;;9.30;83.47;99541.66;4996242;28;20056;-89
2023/05/06 02:32:30;;;;;;;37.88;15.68;;;;;;;9.39;84.20;99571.53;4996816;28;20120;-90
2023/05/06 02:34:56;;;;;;;36.50;15.77;;;;;;;9.33;84.20;99554.56;5032818;28;20499;-88
2023/05/06 02:37:21;;;;;;;34.33;15.77;;;;;;;9.32;84.34;99544.88;5016366;28;20037;-90
2023/05/06 02:39:48;;;;;;;32.65;16.63;;;;;;;9.24;84.59;99542.66;4999742;28;20037;-90
2023/05/06 02:42:15;;;;;;;39.05;17.23;;;;;;;9.22;85.05;99544.78;5031789;28;20392;-90
2023/05/06 02:44:41;;;;;;;34.95;15.98;;;;;;;9.23;84.92;99538.34;4999050;28;20026;-90
2023/05/06 02:47:06;;;;;;;36.58;14.93;;;;;;;9.20;85.38;99542.34;4999744;28;20036;-90
2023/05/06 02:49:31;;;;;;;35.67;14.93;;;;;;;9.33;84.42;99554.56;5015980;28;20029;-91
2023/05/06 02:51:57;;;;;;;29.73;15.13;;;;;;;9.34;84.22;99564.25;5015777;28;20034;-90
2023/05/06 02:54:22;;;;;;;30.88;15.65;;;;;;;9.41;84.57;99570.22;5015390;28;20040;-91
2023/05/06 02:56:48;;;;;;;38.42;14.65;;;;;;;9.27;84.74;99558.25;5015442;28;20034;-90
2023/05/06 02:59:13;;;;;;;30.67;14.95;;;;;;;9.28;84.92;99559.91;5015741;28;20029;-90
2023/05/06 03:01:39;;;;;;;34.78;14.82;;;;;;;9.18;85.29;99557.13;5016503;28;20056;-91
2023/05/06 03:04:05;;;;;;;34.13;15.32;;;;;;;9.23;85.07;99555.25;5032047;28;20102;-90
2023/05/06 03:06:31;;;;;;;31.08;14.38;;;;;;;9.34;84.37;99558.03;5031848;28;20400;-90
2023/05/06 03:08:56;;;;;;;29.92;14.60;;;;;;;9.35;83.95;99567.75;5015588;28;20068;-90
2023/05/06 03:11:22;;;;;;;26.70;14.40;;;;;;;9.21;84.86;99554.72;5015750;28;20026;-90
2023/05/06 03:13:47;;;;;;;33.05;14.63;;;;;;;9.23;85.05;99560.63;5014292;28;20049;-90
2023/05/06 03:16:13;;;;;;;29.25;13.32;;;;;;;9.28;84.91;99567.97;5015154;28;20030;-90
2023/05/06 03:18:38;;;;;;;30.13;13.98;;;;;;;9.21;84.50;99553.91;5015221;28;20030;-91
2023/05/06 03:21:04;;;;;;;38.15;13.80;;;;;;;9.19;85.16;99569.47;4999115;28;20025;-90
2023/05/06 03:23:30;;;;;;;21.83;13.18;;;;;;;9.23;85.24;99565.19;4998279;28;20033;-90
2023/05/06 03:25:55;;;;;;;32.67;14.32;;;;;;;9.25;84.50;99565.75;4999300;28;20025;-90
2023/05/06 03:28:21;;;;;;;26.38;13.80;;;;;;;9.24;85.17;99575.72;5032014;28;20456;-90
2023/05/06 03:30:46;;;;;;;23.23;12.73;;;;;;;9.28;84.82;99573.31;5031905;28;20475;-90
2023/05/06 03:33:11;;;;;;;29.60;13.88;;;;;;;9.45;83.96;99582.06;5014915;28;20026;-90
2023/05/06 03:35:38;;;;;;;22.42;12.27;;;;;;;9.63;83.45;99596.19;5031317;28;20050;-90
2023/05/06 03:38:04;;;;;;;24.75;12.55;;;;;;;9.59;83.39;99600.47;5015233;28;20152;-90
2023/05/06 03:40:29;;;;;;;26.67;14.15;;;;;;;9.38;84.29;99586.03;5031454;28;20057;-90
2023/05/06 03:42:55;;;;;;;25.10;13.13;;;;;;;9.28;84.77;99592.13;5013560;28;20044;-90
2023/05/06 03:45:20;;;;;;;30.15;14.77;;;;;;;9.27;84.98;99593.19;5014516;28;20017;-90
2023/05/06 03:47:46;;;;;;;24.67;13.68;;;;;;;9.22;85.00;99593.97;5014971;28;20396;-90
2023/05/06 03:50:11;;;;;;;31.02;14.18;;;;;;;9.08;85.16;99592.72;5014517;28;20042;-90
2023/05/06 03:52:37;;;;;;;36.50;15.50;;;;;;;9.22;85.44;99611.97;5014633;28;20030;-90
2023/05/06 03:55:02;;;;;;;26.38;14.10;;;;;;;9.19;85.41;99605.19;5014708;28;20030;-90
2023/05/06 03:57:28;;;;;;;26.13;14.45;;;;;;;9.18;85.34;99589.34;5031251;28;20045;-89
2023/05/06 03:59:53;;;;;;;32.10;15.35;;;;;;;9.23;85.51;99606.31;5014337;28;20065;-90
2023/05/06 04:02:19;;;;;;;31.35;15.35;;;;;;;9.20;85.22;99596.09;4997798;28;20018;-89
2023/05/06 04:04:44;;;;;;;34.15;17.00;;;;;;;9.45;84.43;99597.38;5015164;28;20187;-89
2023/05/06 04:07:10;;;;;;;37.60;16.42;;;;;;;9.60;82.89;99602.09;4997618;28;20515;-88
2023/05/06 04:09:35;;;;;;;27.38;15.40;;;;;;;9.53;83.12;99594.25;5030590;28;20029;-88
2023/05/06 04:12:02;;;;;;;31.35;15.77;;;;;;;9.71;82.32;99601.09;5013712;28;20026;-89
2023/05/06 04:14:27;;;;;;;27.33;15.75;;;;;;;9.59;82.80;99611.22;4997950;28;20025;-89
2023/05/06 04:16:53;;;;;;;31.40;15.38;;;;;;;9.62;82.78;99605.31;5017189;28;20021;-88
2023/05/06 04:19:19;;;;;;;37.63;16.17;;;;;;;9.70;82.51;99599.47;5034158;28;20048;-89
2023/05/06 04:21:45;;;;;;;31.67;15.60;;;;;;;9.61;82.59;99606.41;5016648;28;20025;-90
2023/05/06 04:24:10;;;;;;;23.23;13.85;;;;;;;9.56;82.57;99609.03;5033654;28;20025;-90
2023/05/06 04:26:36;;;;;;;28.88;14.45;;;;;;;9.55;82.09;99607.44;5033468;28;20049;-89
2023/05/06 04:29:01;;;;;;;25.17;14.27;;;;;;;9.63;82.66;99615.00;5017416;28;20025;-91
2023/05/06 04:31:27;;;;;;;27.00;13.80;;;;;;;9.67;81.85;99616.94;5033192;28;20022;-89
2023/05/06 04:33:53;;;;;;;30.13;15.30;;;;;;;9.72;81.71;99618.84;5017382;28;20028;-90
2023/05/06 04:36:19;;;;;;;26.90;14.70;;;;;;;9.71;82.02;99610.00;5028857;28;20054;-90
2023/05/06 04:38:46;;;;;;;27.98;14.18;;;;;;;9.81;81.76;99613.81;4981276;28;20036;-90
2023/05/06 04:41:11;;;;;;;37.15;16.30;;;;;;;9.95;81.05;99609.63;4996967;28;20025;-90
2023/05/06 04:43:37;;;;;;;26.90;14.88;;;;;;;10.09;80.89;99624.25;4981321;28;20028;-91
2023/05/06 04:46:02;;;;;;;28.63;13.88;;;;;;;10.35;79.65;99627.09;4997315;28;20503;-90
2023/05/06 04:48:28;;;;;;;29.83;13.75;;;;;;;10.51;78.68;99626.13;4981039;28;20022;-90
2023/05/06 04:50:53;;;;;;;32.05;14.07;;;;;;;10.56;78.08;99611.06;4980573;28;20033;-90
2023/05/06 04:53:19;;;;;;;25.50;12.82;;;;;;;10.66;77.87;99628.06;4981997;28;20076;-90
2023/05/06 04:55:44;;;;;;;34.45;15.25;;;;;;;10.44;78.77;99612.09;4996263;28;20033;-90
2023/05/06 04:58:09;;;;;;;33.88;15.00;;;;;;;10.45;78.89;99615.59;4980843;28;20041;-90
2023/05/06 05:00:35;;;;;;;30.17;14.55;;;;;;;10.65;78.54;99634.53;5013163;28;20033;-90
2023/05/06 05:03:00;;;;;;;30.63;15.27;;;;;;;10.67;78.28;99624.31;4997662;28;20034;-90
2023/05/06 05:05:26;;;;;;;26.58;15.10;;;;;;;10.80;77.96;99622.22;4982251;28;20048;-90
2023/05/06 05:07:51;;;;;;;35.00;15.60;;;;;;;10.91;77.53;99638.16;4980816;28;20033;-90
2023/05/06 05:10:17;;;;;;;26.27;13.82;;;;;;;10.91;76.77;99615.78;4980323;28;20030;-90
2023/05/06 05:12:42;;;;;;;22.48;13.88;;;;;;;11.27;76.44;99626.69;4996953;28;20029;-91
2023/05/06 05:15:08;;;;;;;24.85;14.60;;;;;;;11.62;76.10;99635.88;4980601;28;20451;-90
2023/05/06 05:17:34;;;;;;;34.50;16.13;;;;;;;11.50;75.83;99619.97;4981472;28;20029;-92
2023/05/06 05:19:59;;;;;;;35.42;16.08;;;;;;;11.64;75.92;99629.16;4980752;28;20022;-92
2023/05/06 05:22:25;;;;;;;33.88;14.63;;;;;;;11.89;75.39;99627.53;4997438;28;20045;-92
2023/05/06 05:24:50;;;;;;;29.70;14.98;;;;;;;12.10;74.50;99629.16;4997345;28;20534;-92
2023/05/06 05:27:16;;;;;;;28.05;14.68;;;;;;;12.11;74.38;99613.75;4980705;28;20088;-92
2023/05/06 05:29:41;;;;;;;31.75;14.13;;;;;;;12.34;73.68;99636.66;4996653;28;20041;-93
2023/05/06 05:32:07;;;;;;;28.73;14.40;;;;;;;12.56;73.21;99649.84;4980647;28;20460;-92
2023/05/06 05:34:32;;;;;;;23.60;13.52;;;;;;;12.69;72.68;99643.06;4980422;28;20476;-92
2023/05/06 05:36:58;;;;;;;27.00;14.35;;;;;;;12.78;72.49;99627.06;4979485;28;20554;-91
2023/05/06 05:39:23;;;;;;;28.13;13.55;;;;;;;13.06;72.36;99655.34;4995565;28;20480;-92
2023/05/06 05:41:49;;;;;;;27.50;13.25;;;;;;;13.14;72.52;99639.34;4995568;28;20104;-92
2023/05/06 05:44:14;;;;;;;25.73;13.70;;;;;;;13.19;72.63;99634.97;4996051;28;20026;-92
2023/05/06 05:46:40;;;;;;;27.67;14.18;;;;;;;13.36;72.14;99638.16;4995838;28;20018;-92
2023/05/06 05:49:05;;;;;;;25.42;13.25;;;;;;;13.48;71.37;99632.41;4979169;28;20037;-92
2023/05/06 05:51:31;;;;;;;23.98;13.05;;;;;;;13.64;71.19;99633.91;4979925;28;20022;-92
2023/05/06 05:53:57;;;;;;;26.42;12.52;;;;;;;13.90;70.36;99641.81;4982158;28;20506;-92
2023/05/06 05:56:22;;;;;;;21.67;11.38;;;;;;;14.23;69.14;99645.56;4998404;28;20034;-92
2023/05/06 05:58:48;;;;;;;25.52;12.20;;;;;;;14.25;68.78;99615.50;4981880;28;20530;-92
2023/05/06 06:01:13;;;;;;;17.90;10.55;;;;;;;14.58;68.03;99630.06;4981966;28;20018;-92
2023/05/06 06:03:39;;;;;;;34.30;12.20;;;;;;;14.74;67.79;99628.78;4980278;28;20022;-93
2023/05/06 06:06:04;;;;;;;25.45;10.95;;;;;;;15.01;67.73;99640.94;4995772;28;20365;-93
2023/05/06 06:08:31;;;;;;;17.23;10.18;;;;;;;15.08;67.09;99633.25;4983200;28;20021;-92
2023/05/06 06:10:56;;;;;;;19.40;10.02;;;;;;;15.21;66.83;99630.91;5001726;28;20075;-91
2023/05/06 06:13:22;;;;;;;18.60;10.43;;;;;;;15.14;66.65;99637.50;4984363;28;20030;-91
2023/05/06 06:15:48;;;;;;;13.80;9.32;;;;;;;15.22;65.53;99627.91;5001592;28;20033;-91
2023/05/06 06:18:13;;;;;;;16.02;8.77;;;;;;;15.29;66.09;99616.69;4986394;28;20026;-93
2023/05/06 06:30:37;;;;;;;8.02;5.15;;;;;;;15.59;60.59;99645.28;5034438;28;20143;-93
2023/05/06 06:33:03;;;;;;;7.70;5.78;;;;;;;15.40;59.72;99617.34;5019147;28;20384;-92
2023/05/06 06:35:29;;;;;;;7.93;5.20;;;;;;;15.65;59.68;99635.97;4966697;28;20029;-93
2023/05/06 06:37:54;;;;;;;8.00;5.28;;;;;;;15.76;59.62;99632.00;4967009;28;20026;-93
2023/05/06 06:40:20;;;;;;;11.52;5.57;;;;;;;15.80;59.55;99617.84;4966743;28;20026;-92
2023/05/06 06:42:46;;;;;;;9.05;5.05;;;;;;;16.08;59.91;99632.28;4970259;28;20053;-96
2023/05/06 06:45:12;;;;;;;8.27;5.25;;;;;;;16.23;59.20;99623.88;4975067;28;20083;-95
2023/05/06 06:47:38;;;;;;;7.60;4.85;;;;;;;16.39;58.96;99629.81;4993956;28;20545;-96
2023/05/06 06:50:04;;;;;;;6.85;4.50;;;;;;;16.61;57.82;99634.56;4975107;28;20176;-95
2023/05/06 06:52:30;;;;;;;5.95;4.78;;;;;;;16.73;57.19;99631.34;4973775;28;20064;-95
2023/05/06 06:54:55;;;;;;;7.60;4.20;;;;;;;16.60;55.09;99643.00;4968796;28;20492;-93
2023/05/06 06:57:21;;;;;;;6.10;4.28;;;;;;;16.69;54.70;99627.63;4982717;28;20033;-93
2023/05/06 06:59:47;;;;;;;10.00;5.80;;;;;;;16.76;54.72;99639.69;4967536;28;20052;-93
2023/05/06 07:02:13;;;;;;;6.35;4.35;;;;;;;16.67;55.07;99629.84;4967682;28;20022;-92
2023/05/06 07:04:38;;;;;;;5.30;4.03;;;;;;;16.65;53.83;99629.34;4967432;28;20037;-94
2023/05/06 07:07:04;;;;;;;8.88;5.22;;;;;;;16.88;54.08;99641.13;4966676;28;20060;-93
2023/05/06 07:09:30;;;;;;;8.85;4.15;;;;;;;17.00;54.51;99632.47;4967229;28;20029;-93
2023/05/06 07:11:55;;;;;;;7.93;4.70;;;;;;;16.88;55.44;99624.81;4967417;28;20026;-95
2023/05/06 07:14:21;;;;;;;7.10;4.72;;;;;;;17.09;54.56;99631.41;4967483;28;20025;-94
2023/05/06 07:16:46;;;;;;;6.75;4.20;;;;;;;17.33;53.63;99628.44;4966858;28;20503;-93
2023/05/06 07:19:12;;;;;;;9.40;4.78;;;;;;;17.46;54.13;99645.06;4966315;28;20025;-93
2023/05/06 07:21:37;;;;;;;6.13;4.63;;;;;;;17.38;53.37;99622.88;4967379;28;20021;-93
2023/05/06 07:24:02;;;;;;;8.10;4.82;;;;;;;17.40;54.61;99608.97;4982831;28;20034;-94
2023/05/06 07:26:28;;;;;;;7.60;4.65;;;;;;;17.57;54.35;99632.78;4982474;28;20025;-95
2023/05/06 07:28:53;;;;;;;6.47;4.65;;;;;;;17.52;53.50;99609.22;4967876;28;20115;-93
2023/05/06 07:31:19;;;;;;;8.63;4.43;;;;;;;17.81;51.81;99626.25;4966641;28;20026;-94
2023/05/06 07:33:48;;;;;;;6.60;3.95;;;;;;;18.05;49.89;99639.56;4968347;28;20424;-91
2023/05/06 07:36:14;;;;;;;6.80;3.95;;;;;;;18.22;51.06;99636.94;4965859;28;20026;-94
2023/05/06 07:38:40;;;;;;;8.40;4.80;;;;;;;18.07;52.44;99632.66;4966409;28;20037;-92
2023/05/06 07:41:05;;;;;;;7.78;4.40;;;;;;;18.00;52.39;99635.06;4999427;28;20022;-94
2023/05/06 07:43:31;;;;;;;8.02;4.40;;;;;;;18.03;52.55;99641.78;4998761;28;20026;-94
2023/05/06 07:46:01;;;;;;;7.55;4.85;;;;;;;18.11;51.98;99649.22;4982552;28;20026;-93
2023/05/06 07:48:29;;;;;;;10.35;5.10;;;;;;;17.95;51.53;99638.72;4983383;28;20026;-93
2023/05/06 07:50:55;;;;;;;6.10;4.28;;;;;;;17.87;52.16;99647.63;4966811;28;20033;-93
2023/05/06 07:53:21;;;;;;;8.75;5.28;;;;;;;17.78;52.39;99636.66;4966829;28;20026;-94
2023/05/06 07:55:46;;;;;;;8.05;4.22;;;;;;;17.73;52.19;99642.22;4982827;28;20034;-93
2023/05/06 07:58:11;;;;;;;7.97;4.40;;;;;;;17.72;52.11;99646.06;4982337;28;20440;-93
2023/05/06 08:00:37;;;;;;;7.22;4.32;;;;;;;17.89;52.20;99647.34;4982506;28;20026;-94
2023/05/06 08:03:03;;;;;;;6.85;4.75;;;;;;;18.02;51.79;99645.66;4966319;28;20037;-93
2023/05/06 08:05:28;;;;;;;5.68;4.60;;;;;;;18.14;51.42;99652.13;4982305;28;20018;-93
2023/05/06 08:07:54;;;;;;;5.55;4.35;;;;;;;18.26;50.82;99637.94;4965110;28;20021;-95
2023/05/06 08:10:21;;;;;;;8.40;4.55;;;;;;;18.43;51.26;99647.28;4983121;28;20364;-94
2023/05/06 08:12:46;;;;;;;5.60;4.53;;;;;;;18.59;51.17;99651.19;4966174;28;20470;-94
2023/05/06 08:15:12;;;;;;;8.40;4.55;;;;;;;18.61;50.93;99650.91;4968402;28;20050;-94
2023/05/06 08:17:37;;;;;;;7.70;4.30;;;;;;;18.62;49.98;99647.06;4966071;28;20207;-94
2023/05/06 08:20:03;;;;;;;8.07;4.18;;;;;;;18.58;50.64;99633.25;4966321;28;20097;-94
2023/05/06 08:22:29;;;;;;;6.68;4.28;;;;;;;18.63;50.19;99665.81;4966240;28;20040;-95
2023/05/06 08:24:55;;;;;;;6.15;4.20;;;;;;;18.40;50.35;99656.09;4966228;28;20026;-94
2023/05/06 08:27:20;;;;;;;6.85;4.47;;;;;;;18.27;50.01;99642.25;4961997;28;20050;-94
2023/05/06 08:29:46;;;;;;;4.68;4.03;;;;;;;18.40;50.78;99669.72;4977698;28;20042;-93
2023/05/06 08:32:11;;;;;;;10.77;4.40;;;;;;;18.40;51.15;99661.56;4994001;28;20400;-93
2023/05/06 08:34:36;;;;;;;7.00;4.22;;;;;;;18.61;50.79;99654.41;4962283;28;20030;-94
2023/05/06 08:37:02;;;;;;;7.03;4.32;;;;;;;18.73;50.16;99671.00;4963899;28;20436;-95
2023/05/06 08:39:29;;;;;;;6.47;4.15;;;;;;;18.70;50.24;99641.63;4962595;28;20571;-94
2023/05/06 08:41:58;;;;;;;5.78;4.47;;;;;;;19.12;49.79;99650.25;4978472;28;20018;-94
2023/05/06 08:44:24;;;;;;;6.10;4.20;;;;;;;19.29;49.09;99671.31;4962437;28;20022;-94
2023/05/06 08:46:49;;;;;;;6.93;4.15;;;;;;;19.01;49.26;99646.25;4978386;28;20022;-94
2023/05/06 08:49:15;;;;;;;7.35;4.50;;;;;;;19.02;49.31;99653.28;4962476;28;20492;-94
2023/05/06 08:51:42;;;;;;;7.45;4.32;;;;;;;19.00;49.61;99655.53;4961889;28;20029;-93
2023/05/06 08:54:07;;;;;;;5.65;4.18;;;;;;;19.16;49.40;99662.16;4962370;28;20022;-92
2023/05/06 08:56:33;;;;;;;8.43;4.40;;;;;;;19.15;49.12;99649.66;4978549;28;20029;-93
2023/05/06 08:59:00;;;;;;;6.13;4.22;;;;;;;19.15;49.15;99640.63;4978760;28;20161;-94
2023/05/06 09:01:26;;;;;;;5.93;4.40;;;;;;;18.97;50.12;99639.81;4978009;28;20054;-93
2023/05/06 09:03:52;;;;;;;8.73;4.80;;;;;;;19.05;49.62;99636.31;4962602;28;20030;-92
2023/05/06 09:06:18;;;;;;;6.95;5.10;;;;;;;18.85;49.98;99642.34;4978719;28;20068;-93
2023/05/06 09:08:43;;;;;;;7.57;4.20;;;;;;;19.08;49.41;99648.50;4978163;28;20381;-94
2023/05/06 09:11:25;;;;;;;5.90;4.43;;;;;;;19.22;50.06;99657.34;4977164;28;20037;-91
2023/05/06 09:14:05;;;;;;;7.90;4.30;;;;;;;19.12;49.21;99633.88;4979296;28;20081;-91
2023/05/06 09:16:31;;;;;;;8.48;4.22;;;;;;;19.30;49.36;99644.81;4963291;28;20026;-90
2023/05/06 09:18:58;;;;;;;7.95;4.10;;;;;;;19.32;48.93;99634.38;4961035;28;20084;-91
2023/05/06 09:21:37;;;;;;;6.72;3.80;;;;;;;19.43;47.16;99630.22;4977669;28;20023;-92
2023/05/06 09:24:03;;;;;;;5.25;3.42;;;;;;;19.59;46.46;99625.88;4961068;28;20452;-91
2023/05/06 09:26:30;;;;;;;5.63;4.10;;;;;;;19.33;46.52;99633.28;4960586;28;20110;-91
2023/05/06 09:28:57;;;;;;;8.73;3.65;;;;;;;19.37;47.56;99634.22;4993904;28;20057;-89
2023/05/06 09:31:23;;;;;;;6.45;4.05;;;;;;;19.49;47.52;99626.22;4961099;28;20119;-91
2023/05/06 09:33:48;;;;;;;7.07;3.83;;;;;;;19.58;47.09;99615.28;4977455;28;20392;-91
2023/05/06 09:36:14;;;;;;;9.20;4.22;;;;;;;19.77;46.57;99618.47;4977188;28;20022;-91
2023/05/06 09:38:40;;;;;;;5.63;3.72;;;;;;;19.92;45.88;99622.66;4977427;28;20027;-91
2023/05/06 09:41:06;;;;;;;6.03;3.60;;;;;;;20.11;45.71;99616.81;4960732;28;20072;-91
2023/05/06 09:43:32;;;;;;;6.68;3.60;;;;;;;20.02;45.90;99616.03;4977010;28;20484;-91
2023/05/06 09:45:58;;;;;;;7.07;4.13;;;;;;;19.93;46.19;99605.13;4976292;28;20076;-90
2023/05/06 09:48:28;;;;;;;5.47;4.18;;;;;;;20.02;46.23;99599.63;4961660;28;20026;-92
2023/05/06 09:50:53;;;;;;;7.57;3.83;;;;;;;20.34;46.13;99600.97;4962538;28;20479;-93
2023/05/06 09:53:19;;;;;;;9.05;4.00;;;;;;;19.98;46.74;99585.81;4977917;28;20026;-91
2023/05/06 09:55:44;;;;;;;6.97;3.42;;;;;;;20.20;44.62;99575.78;4992872;28;20030;-91
2023/05/06 09:58:10;;;;;;;5.95;3.08;;;;;;;20.24;43.56;99592.34;4961089;28;20028;-90
2023/05/06 10:00:36;;;;;;;6.95;2.60;;;;;;;20.47;43.34;99576.47;4961040;28;20465;-91
2023/05/06 10:03:01;;;;;;;3.60;2.78;;;;;;;20.41;43.38;99594.19;4976883;28;20026;-91
2023/05/06 10:05:27;;;;;;;5.57;2.60;;;;;;;20.61;43.22;99589.91;4960141;28;20048;-92
2023/05/06 10:07:52;;;;;;;3.67;2.78;;;;;;;20.79;42.97;99580.47;4976532;28;20109;-91
2023/05/06 10:10:18;;;;;;;8.07;2.92;;;;;;;20.73;43.63;99599.06;4992817;28;20018;-91
2023/05/06 10:12:43;;;;;;;5.28;3.00;;;;;;;20.77;43.51;99605.47;4960358;28;20019;-92
2023/05/06 10:15:09;;;;;;;8.23;3.90;;;;;;;20.73;43.15;99599.06;4976013;28;20022;-92
2023/05/06 10:17:34;;;;;;;6.95;3.17;;;;;;;20.42;44.36;99587.56;4976390;28;20023;-92
2023/05/06 10:20:00;;;;;;;5.65;2.95;;;;;;;20.68;43.19;99585.53;4960521;28;20026;-92
2023/05/06 10:22:45;;;;;;;5.88;3.10;;;;;;;20.91;43.21;99585.25;4976886;28;20042;-92
2023/05/06 10:25:15;;;;;;;5.97;2.92;;;;;;;20.99;42.18;99584.38;4962276;28;20032;-92
2023/05/06 10:27:41;;;;;;;9.07;3.10;;;;;;;21.12;42.53;99588.00;4960849;28;20140;-92
2023/05/06 10:30:07;;;;;;;3.53;2.72;;;;;;;20.99;42.28;99576.97;4960579;28;20080;-91
2023/05/06 10:32:33;;;;;;;3.50;2.33;;;;;;;21.06;41.58;99565.47;4973471;28;20035;-92
2023/05/06 10:35:07;;;;;;;5.38;2.60;;;;;;;21.43;41.13;99576.66;4957156;28;20027;-90
2023/05/06 10:37:32;;;;;;;6.38;2.80;;;;;;;21.40;40.92;99563.59;4973018;28;20034;-90
2023/05/06 10:39:57;;;;;;;5.40;2.55;;;;;;;21.47;40.69;99557.59;4957403;28;20031;-90
2023/05/06 10:42:26;;;;;;;6.65;2.67;;;;;;;21.02;40.17;99570.00;4973472;28;20035;-90
2023/05/06 10:45:04;;;;;;;3.13;2.38;;;;;;;20.98;40.70;99550.75;4972925;28;20085;-91
2023/05/06 10:47:55;;;;;;;3.40;2.42;;;;;;;21.31;40.78;99587.50;4956629;28;20473;-91
2023/05/06 10:50:24;;;;;;;3.63;2.60;;;;;;;21.34;40.07;99581.38;4973245;28;20027;-91
2023/05/06 10:52:51;;;;;;;4.63;2.70;;;;;;;21.32;40.21;99572.69;4957433;28;20030;-92
2023/05/06 10:55:33;;;;;;;6.10;2.90;;;;;;;21.12;39.91;99569.63;4975745;28;20114;-91
2023/05/06 10:58:05;;;;;;;3.97;2.58;;;;;;;21.27;39.38;99586.59;4959821;28;20472;-91
2023/05/06 11:00:32;;;;;;;3.20;2.40;;;;;;;21.20;40.34;99576.16;4976490;28;20145;-91
2023/05/06 11:03:00;;;;;;;5.20;2.55;;;;;;;21.17;40.57;99574.91;4960768;28;20065;-91
2023/05/06 11:05:26;;;;;;;3.40;2.67;;;;;;;21.15;39.76;99581.88;4976734;28;20034;-91
2023/05/06 11:07:54;;;;;;;3.03;2.20;;;;;;;21.06;40.09;99572.91;4975507;28;20026;-90
2023/05/06 11:10:32;;;;;;;3.40;2.55;;;;;;;21.04;40.27;99565.00;4959676;28;20477;-91
2023/05/06 11:13:16;;;;;;;4.03;2.50;;;;;;;21.33;40.00;99583.31;4959625;28;20556;-90
2023/05/06 11:15:42;;;;;;;4.70;2.55;;;;;;;21.35;39.17;99585.72;4976072;28;20101;-90
2023/05/06 11:18:32;;;;;;;4.50;2.17;;;;;;;21.50;38.96;99587.06;4960251;28;20027;-92
2023/05/06 11:21:03;;;;;;;2.85;2.03;;;;;;;21.59;38.71;99587.78;4975931;28;20038;-92
2023/05/06 11:23:45;;;;;;;3.10;2.00;;;;;;;21.72;38.43;99583.16;4977246;28;20046;-91
2023/05/06 11:26:11;;;;;;;3.60;2.50;;;;;;;21.54;38.61;99574.28;4976188;28;20035;-91
2023/05/06 11:28:37;;;;;;;5.70;2.42;;;;;;;21.40;39.22;99552.66;4975514;28;20067;-91
2023/05/06 11:31:03;;;;;;;3.10;2.13;;;;;;;21.28;39.28;99558.06;4959867;28;20117;-92
2023/05/06 11:33:33;;;;;;;2.75;2.22;;;;;;;21.34;39.61;99562.22;4976402;28;20500;-91
2023/05/06 11:35:59;;;;;;;5.30;2.40;;;;;;;21.46;38.90;99583.38;4976529;28;20031;-89